Schedule Details


Flight Number: CTN300
Departure: Cilipi (LDDU) at 15:30
Arrival: Eleftherios Venizelos Intl (LGAV) at 18:15
Route: MOKUN L187 RODON N732 KRK L53 PIKAD

Weather Information
LDDU 191400Z 07007KT 9999 -RA SCT020 BKN033 11/09 Q1017 NOSIG
LGAV 191350Z 13006KT 9999 FEW030 15/09 Q1016 NOSIG
Schedule Frequency

Route Map